EZY125 EGKK-EDDH
Flight info
| Callsign | EZY125 |
|---|---|
| Flight time | 0h 51m |
| Altitude | 33000 |
| Route | FRANE1M FRANE M604 PAAVO Q295 SOMVA DCT MAVAS DCT TULIP Y12 SPY N873 ANDIK M105 RIBSO RIBSO3P |
| Aircraft | A320/M-L/C |
Departure
| Time | 2026-04-16 10:13 |
|---|---|
| Airport | London Gatwick Airport (EGKK) |
Arrival
| Time | 2026-04-16 11:05 |
|---|---|
| Airport | Hamburg Helmut Schmidt Airport (EDDH) |
| Time | Latitude | Longitude | Altitude | Speed | Heading |
|---|---|---|---|---|---|
| 2026-04-16 09:49 | 51.15571 | -0.17000 | 214 ft | 0 kts | 167° |
| 2026-04-16 10:04 | 51.15574 | -0.17001 | 205 ft | 3 kts | 167° |
| 2026-04-16 10:04 | 51.15599 | -0.17010 | 209 ft | 4 kts | 167° |
| 2026-04-16 10:04 | 51.15625 | -0.17019 | 215 ft | 4 kts | 181° |
| 2026-04-16 10:05 | 51.15645 | -0.17007 | 207 ft | 4 kts | 242° |
| 2026-04-16 10:05 | 51.15652 | -0.16977 | 214 ft | 4 kts | 257° |
| 2026-04-16 10:05 | 51.15654 | -0.16957 | 211 ft | 0 kts | 257° |
| 2026-04-16 10:08 | 51.15653 | -0.16966 | 212 ft | 4 kts | 257° |
| 2026-04-16 10:08 | 51.15639 | -0.17075 | 205 ft | 14 kts | 258° |
| 2026-04-16 10:08 | 51.15616 | -0.17240 | 214 ft | 16 kts | 257° |
| 2026-04-16 10:08 | 51.15533 | -0.17313 | 205 ft | 17 kts | 169° |
| 2026-04-16 10:09 | 51.15416 | -0.17271 | 207 ft | 18 kts | 169° |
| 2026-04-16 10:09 | 51.15310 | -0.17234 | 208 ft | 16 kts | 166° |
| 2026-04-16 10:09 | 51.15265 | -0.17101 | 205 ft | 15 kts | 77° |
| 2026-04-16 10:09 | 51.15287 | -0.16942 | 205 ft | 14 kts | 78° |
| 2026-04-16 10:10 | 51.15284 | -0.16842 | 213 ft | 0 kts | 132° |
| 2026-04-16 10:11 | 51.15250 | -0.16819 | 211 ft | 11 kts | 168° |
| 2026-04-16 10:11 | 51.15169 | -0.16794 | 209 ft | 13 kts | 178° |
| 2026-04-16 10:11 | 51.15112 | -0.16882 | 213 ft | 0 kts | 257° |
| 2026-04-16 10:13 | 51.15102 | -0.16952 | 207 ft | 33 kts | 257° |
| 2026-04-16 10:13 | 51.14999 | -0.17707 | 217 ft | 103 kts | 257° |
| 2026-04-16 10:13 | 51.14803 | -0.19091 | 365 ft | 140 kts | 257° |
| 2026-04-16 10:13 | 51.14617 | -0.20616 | 1050 ft | 142 kts | 255° |
| 2026-04-16 10:14 | 51.14406 | -0.22179 | 1725 ft | 150 kts | 255° |
| 2026-04-16 10:14 | 51.14167 | -0.23931 | 2165 ft | 173 kts | 256° |
| 2026-04-16 10:14 | 51.13900 | -0.25888 | 2544 ft | 194 kts | 256° |
| 2026-04-16 10:14 | 51.13731 | -0.28112 | 3010 ft | 213 kts | 274° |
| 2026-04-16 10:15 | 51.14273 | -0.30355 | 3701 ft | 224 kts | 304° |
| 2026-04-16 10:15 | 51.15521 | -0.31884 | 4549 ft | 234 kts | 335° |
| 2026-04-16 10:15 | 51.17162 | -0.32126 | 5427 ft | 246 kts | 9° |
| 2026-04-16 10:15 | 51.18676 | -0.30807 | 6237 ft | 257 kts | 46° |
| 2026-04-16 10:16 | 51.19469 | -0.28269 | 7048 ft | 260 kts | 78° |
| 2026-04-16 10:16 | 51.19828 | -0.25437 | 7864 ft | 262 kts | 81° |
| 2026-04-16 10:16 | 51.20152 | -0.22555 | 8643 ft | 267 kts | 81° |
| 2026-04-16 10:16 | 51.20472 | -0.19653 | 9391 ft | 275 kts | 81° |
| 2026-04-16 10:17 | 51.20839 | -0.16523 | 9817 ft | 299 kts | 80° |
| 2026-04-16 10:17 | 51.21261 | -0.13202 | 10372 ft | 315 kts | 77° |
| 2026-04-16 10:17 | 51.22163 | -0.09893 | 10672 ft | 338 kts | 53° |
| 2026-04-16 10:17 | 51.23831 | -0.07140 | 11139 ft | 353 kts | 40° |
| 2026-04-16 10:18 | 51.25668 | -0.04479 | 11905 ft | 359 kts | 40° |
| 2026-04-16 10:18 | 51.27526 | -0.01795 | 12708 ft | 363 kts | 39° |
| 2026-04-16 10:18 | 51.29406 | 0.00928 | 13406 ft | 367 kts | 40° |
| 2026-04-16 10:18 | 51.31305 | 0.03694 | 14151 ft | 370 kts | 40° |
| 2026-04-16 10:19 | 51.33215 | 0.06491 | 14941 ft | 375 kts | 40° |
| 2026-04-16 10:19 | 51.35123 | 0.09291 | 15584 ft | 380 kts | 40° |
| 2026-04-16 10:19 | 51.37085 | 0.12174 | 16231 ft | 385 kts | 39° |
| 2026-04-16 10:19 | 51.39075 | 0.15100 | 16897 ft | 390 kts | 39° |
| 2026-04-16 10:20 | 51.41083 | 0.18056 | 17549 ft | 395 kts | 39° |
| 2026-04-16 10:20 | 51.43119 | 0.21053 | 18206 ft | 400 kts | 39° |
| 2026-04-16 10:20 | 51.45179 | 0.24089 | 18783 ft | 405 kts | 39° |
| 2026-04-16 10:20 | 51.47258 | 0.27164 | 19344 ft | 408 kts | 39° |
| 2026-04-16 10:21 | 51.49354 | 0.30266 | 19929 ft | 411 kts | 39° |
| 2026-04-16 10:21 | 51.51437 | 0.33351 | 20499 ft | 415 kts | 39° |
| 2026-04-16 10:21 | 51.53566 | 0.36507 | 21058 ft | 418 kts | 39° |
| 2026-04-16 10:21 | 51.55708 | 0.39687 | 21611 ft | 421 kts | 39° |
| 2026-04-16 10:22 | 51.57866 | 0.42895 | 22174 ft | 425 kts | 38° |
| 2026-04-16 10:22 | 51.60044 | 0.46139 | 22736 ft | 427 kts | 39° |
| 2026-04-16 10:22 | 51.62229 | 0.49398 | 23264 ft | 431 kts | 38° |
| 2026-04-16 10:22 | 51.64437 | 0.52690 | 23774 ft | 434 kts | 38° |
| 2026-04-16 10:23 | 51.66656 | 0.56004 | 24195 ft | 437 kts | 38° |
| 2026-04-16 10:23 | 51.68891 | 0.59350 | 24609 ft | 440 kts | 38° |
| 2026-04-16 10:23 | 51.71138 | 0.62723 | 25020 ft | 443 kts | 38° |
| 2026-04-16 10:23 | 51.73374 | 0.66083 | 25413 ft | 447 kts | 38° |
| 2026-04-16 10:24 | 51.75654 | 0.69514 | 25808 ft | 450 kts | 38° |
| 2026-04-16 10:24 | 51.77944 | 0.72967 | 26197 ft | 453 kts | 38° |
| 2026-04-16 10:24 | 51.80254 | 0.76460 | 26580 ft | 456 kts | 38° |
| 2026-04-16 10:24 | 51.82583 | 0.79983 | 26983 ft | 460 kts | 37° |
| 2026-04-16 10:25 | 51.84849 | 0.83678 | 27336 ft | 469 kts | 47° |
| 2026-04-16 10:25 | 51.86556 | 0.88230 | 27699 ft | 480 kts | 65° |
| 2026-04-16 10:25 | 51.87412 | 0.93481 | 28047 ft | 487 kts | 82° |
| 2026-04-16 10:25 | 51.87839 | 0.98858 | 28386 ft | 490 kts | 79° |
| 2026-04-16 10:26 | 51.88570 | 1.04250 | 28777 ft | 491 kts | 72° |
| 2026-04-16 10:26 | 51.89716 | 1.09461 | 29157 ft | 492 kts | 65° |
| 2026-04-16 10:26 | 51.91033 | 1.14606 | 29528 ft | 495 kts | 64° |
| 2026-04-16 10:26 | 51.92422 | 1.19718 | 29879 ft | 497 kts | 63° |
| 2026-04-16 10:27 | 51.93854 | 1.24829 | 30193 ft | 500 kts | 62° |
| 2026-04-16 10:27 | 51.95306 | 1.29971 | 30484 ft | 503 kts | 62° |
| 2026-04-16 10:27 | 51.96754 | 1.35147 | 30754 ft | 506 kts | 62° |
| 2026-04-16 10:27 | 51.98195 | 1.40373 | 31025 ft | 509 kts | 63° |
| 2026-04-16 10:28 | 51.99606 | 1.45570 | 31273 ft | 511 kts | 63° |
| 2026-04-16 10:28 | 52.01031 | 1.50868 | 31545 ft | 513 kts | 63° |
| 2026-04-16 10:28 | 52.02452 | 1.56182 | 31886 ft | 513 kts | 63° |
| 2026-04-16 10:28 | 52.03868 | 1.61501 | 32303 ft | 513 kts | 63° |
| 2026-04-16 10:29 | 52.05276 | 1.66821 | 32651 ft | 513 kts | 63° |
| 2026-04-16 10:29 | 52.06683 | 1.72146 | 32998 ft | 513 kts | 63° |
| 2026-04-16 10:29 | 52.08092 | 1.77485 | 33148 ft | 512 kts | 63° |
| 2026-04-16 10:29 | 52.09477 | 1.82748 | 33168 ft | 502 kts | 62° |
| 2026-04-16 10:30 | 52.13795 | 1.99072 | 33175 ft | 496 kts | 62° |
| 2026-04-16 10:30 | 52.19205 | 2.19698 | 33183 ft | 495 kts | 63° |
| 2026-04-16 10:31 | 52.24553 | 2.40380 | 33186 ft | 495 kts | 63° |
| 2026-04-16 10:31 | 52.29874 | 2.61056 | 33186 ft | 493 kts | 63° |
| 2026-04-16 10:32 | 52.33899 | 2.82457 | 33183 ft | 496 kts | 71° |
| 2026-04-16 10:32 | 52.37701 | 3.04162 | 33168 ft | 495 kts | 71° |
| 2026-04-16 10:33 | 52.39433 | 3.26389 | 33154 ft | 498 kts | 95° |
| 2026-04-16 10:33 | 52.38450 | 3.48992 | 33157 ft | 498 kts | 94° |
| 2026-04-16 10:34 | 52.37457 | 3.71407 | 33179 ft | 497 kts | 95° |
| 2026-04-16 10:34 | 52.38182 | 3.93719 | 33185 ft | 491 kts | 70° |
| 2026-04-16 10:35 | 52.42002 | 4.15206 | 33188 ft | 491 kts | 71° |
| 2026-04-16 10:35 | 52.45734 | 4.36737 | 33209 ft | 491 kts | 71° |
| 2026-04-16 10:36 | 52.49429 | 4.58198 | 33182 ft | 492 kts | 71° |
| 2026-04-16 10:36 | 52.51284 | 4.69108 | 33197 ft | 504 kts | 72° |
| 2026-04-16 10:36 | 52.53250 | 4.80338 | 33189 ft | 519 kts | 67° |
| 2026-04-16 10:37 | 52.56649 | 4.90794 | 33183 ft | 519 kts | 48° |
| 2026-04-16 10:37 | 52.61135 | 5.00055 | 33181 ft | 519 kts | 46° |
| 2026-04-16 10:37 | 52.69363 | 5.17361 | 33179 ft | 514 kts | 47° |
| 2026-04-16 10:38 | 52.73597 | 5.26894 | 33206 ft | 519 kts | 56° |
| 2026-04-16 10:38 | 52.76471 | 5.37921 | 33184 ft | 525 kts | 66° |
| 2026-04-16 10:39 | 52.80366 | 5.53507 | 33176 ft | 522 kts | 61° |
| 2026-04-16 10:39 | 52.86784 | 5.74976 | 33188 ft | 520 kts | 60° |
| 2026-04-16 10:40 | 52.92863 | 5.96500 | 33173 ft | 519 kts | 62° |
| 2026-04-16 10:40 | 52.98918 | 6.18197 | 33185 ft | 517 kts | 62° |
| 2026-04-16 10:41 | 53.04954 | 6.39870 | 33168 ft | 517 kts | 62° |
| 2026-04-16 10:41 | 53.09930 | 6.57942 | 33180 ft | 516 kts | 63° |
| 2026-04-16 10:42 | 53.16827 | 6.83169 | 33190 ft | 514 kts | 63° |
| 2026-04-16 10:42 | 53.22691 | 7.04901 | 33181 ft | 514 kts | 64° |
| 2026-04-16 10:43 | 53.27256 | 7.23240 | 33191 ft | 515 kts | 66° |
| 2026-04-16 10:43 | 53.32624 | 7.45401 | 33201 ft | 514 kts | 65° |
| 2026-04-16 10:44 | 53.35295 | 7.56353 | 33161 ft | 494 kts | 65° |
| 2026-04-16 10:44 | 53.37801 | 7.66707 | 33182 ft | 473 kts | 65° |
| 2026-04-16 10:44 | 53.40264 | 7.76908 | 32668 ft | 471 kts | 66° |
| 2026-04-16 10:44 | 53.42713 | 7.87084 | 32106 ft | 470 kts | 66° |
| 2026-04-16 10:45 | 53.45124 | 7.97197 | 31266 ft | 463 kts | 66° |
| 2026-04-16 10:45 | 53.47455 | 8.07052 | 30509 ft | 457 kts | 66° |
| 2026-04-16 10:45 | 53.49806 | 8.17005 | 29628 ft | 450 kts | 66° |
| 2026-04-16 10:45 | 53.52069 | 8.26600 | 28741 ft | 444 kts | 66° |
| 2026-04-16 10:46 | 53.54315 | 8.36152 | 27863 ft | 437 kts | 67° |
| 2026-04-16 10:46 | 53.56528 | 8.45619 | 27013 ft | 432 kts | 67° |
| 2026-04-16 10:46 | 53.58701 | 8.54982 | 26191 ft | 426 kts | 67° |
| 2026-04-16 10:46 | 53.60839 | 8.64216 | 25396 ft | 421 kts | 67° |
| 2026-04-16 10:47 | 53.62950 | 8.73388 | 24429 ft | 418 kts | 67° |
| 2026-04-16 10:47 | 53.64915 | 8.81959 | 23398 ft | 413 kts | 67° |
| 2026-04-16 10:47 | 53.65995 | 8.86688 | 22761 ft | 411 kts | 68° |
| 2026-04-16 10:47 | 53.67003 | 8.91111 | 22163 ft | 407 kts | 68° |
| 2026-04-16 10:48 | 53.68010 | 8.95532 | 21517 ft | 398 kts | 68° |
| 2026-04-16 10:48 | 53.68990 | 8.99842 | 20902 ft | 391 kts | 68° |
| 2026-04-16 10:48 | 53.69955 | 9.04098 | 20294 ft | 386 kts | 68° |
| 2026-04-16 10:48 | 53.70909 | 9.08309 | 19698 ft | 382 kts | 68° |
| 2026-04-16 10:49 | 53.71851 | 9.12480 | 19122 ft | 378 kts | 69° |
| 2026-04-16 10:49 | 53.72794 | 9.16657 | 18556 ft | 381 kts | 69° |
| 2026-04-16 10:49 | 53.73739 | 9.20858 | 17858 ft | 384 kts | 69° |
| 2026-04-16 10:49 | 53.74678 | 9.25031 | 17174 ft | 387 kts | 69° |
| 2026-04-16 10:50 | 53.75636 | 9.29289 | 16491 ft | 389 kts | 69° |
| 2026-04-16 10:50 | 53.76587 | 9.33532 | 15813 ft | 381 kts | 69° |
| 2026-04-16 10:50 | 53.77506 | 9.37656 | 15164 ft | 369 kts | 69° |
| 2026-04-16 10:50 | 53.78397 | 9.41666 | 14526 ft | 359 kts | 68° |
| 2026-04-16 10:51 | 53.79261 | 9.45570 | 13881 ft | 351 kts | 68° |
| 2026-04-16 10:51 | 53.80109 | 9.49409 | 13175 ft | 345 kts | 68° |
| 2026-04-16 10:51 | 53.80944 | 9.53186 | 12494 ft | 341 kts | 68° |
| 2026-04-16 10:51 | 53.81769 | 9.56920 | 11824 ft | 337 kts | 68° |
| 2026-04-16 10:52 | 53.82588 | 9.60628 | 11161 ft | 334 kts | 68° |
| 2026-04-16 10:52 | 53.83325 | 9.64278 | 10527 ft | 331 kts | 78° |
| 2026-04-16 10:52 | 53.83454 | 9.68107 | 9884 ft | 323 kts | 92° |
| 2026-04-16 10:52 | 53.83335 | 9.71855 | 9193 ft | 317 kts | 94° |
| 2026-04-16 10:53 | 53.83202 | 9.75552 | 8503 ft | 311 kts | 94° |
| 2026-04-16 10:53 | 53.83071 | 9.79171 | 7838 ft | 306 kts | 94° |
| 2026-04-16 10:53 | 53.82944 | 9.82738 | 7258 ft | 299 kts | 94° |
| 2026-04-16 10:53 | 53.82824 | 9.86221 | 6685 ft | 295 kts | 94° |
| 2026-04-16 10:54 | 53.82708 | 9.89662 | 6040 ft | 290 kts | 94° |
| 2026-04-16 10:54 | 53.82598 | 9.93004 | 5402 ft | 286 kts | 95° |
| 2026-04-16 10:54 | 53.82490 | 9.96331 | 4762 ft | 280 kts | 94° |
| 2026-04-16 10:54 | 53.82387 | 9.99599 | 4123 ft | 276 kts | 94° |
| 2026-04-16 10:55 | 53.82285 | 10.02812 | 3485 ft | 272 kts | 94° |
| 2026-04-16 10:55 | 53.82188 | 10.05960 | 3078 ft | 259 kts | 94° |
| 2026-04-16 10:55 | 53.82099 | 10.08891 | 3004 ft | 244 kts | 94° |
| 2026-04-16 10:55 | 53.82007 | 10.11760 | 3016 ft | 243 kts | 95° |
| 2026-04-16 10:56 | 53.81925 | 10.14616 | 3010 ft | 242 kts | 94° |
| 2026-04-16 10:56 | 53.81819 | 10.17454 | 3008 ft | 242 kts | 101° |
| 2026-04-16 10:56 | 53.81197 | 10.19990 | 2991 ft | 227 kts | 129° |
| 2026-04-16 10:56 | 53.80245 | 10.21994 | 3009 ft | 218 kts | 134° |
| 2026-04-16 10:57 | 53.79253 | 10.23915 | 3006 ft | 215 kts | 134° |
| 2026-04-16 10:57 | 53.78269 | 10.25810 | 3007 ft | 214 kts | 134° |
| 2026-04-16 10:57 | 53.77291 | 10.27698 | 3032 ft | 213 kts | 135° |
| 2026-04-16 10:57 | 53.76316 | 10.29587 | 3021 ft | 213 kts | 134° |
| 2026-04-16 10:58 | 53.75338 | 10.31473 | 3008 ft | 214 kts | 135° |
| 2026-04-16 10:58 | 53.74360 | 10.33379 | 3007 ft | 215 kts | 134° |
| 2026-04-16 10:58 | 53.73269 | 10.35046 | 2984 ft | 209 kts | 157° |
| 2026-04-16 10:58 | 53.71934 | 10.35427 | 2870 ft | 189 kts | 193° |
| 2026-04-16 10:59 | 53.70860 | 10.34403 | 2608 ft | 179 kts | 233° |
| 2026-04-16 10:59 | 53.70411 | 10.32516 | 2299 ft | 175 kts | 260° |
| 2026-04-16 10:59 | 53.70253 | 10.30467 | 2031 ft | 175 kts | 264° |
| 2026-04-16 10:59 | 53.70151 | 10.28426 | 2012 ft | 173 kts | 264° |
| 2026-04-16 11:00 | 53.70055 | 10.26500 | 2017 ft | 158 kts | 264° |
| 2026-04-16 11:00 | 53.69965 | 10.24690 | 2016 ft | 153 kts | 264° |
| 2026-04-16 11:00 | 53.69880 | 10.22896 | 2018 ft | 153 kts | 264° |
| 2026-04-16 11:00 | 53.69800 | 10.21132 | 2013 ft | 150 kts | 264° |
| 2026-04-16 11:01 | 53.69724 | 10.19420 | 2009 ft | 147 kts | 264° |
| 2026-04-16 11:01 | 53.69649 | 10.17689 | 2007 ft | 149 kts | 264° |
| 2026-04-16 11:01 | 53.69576 | 10.15936 | 2008 ft | 146 kts | 265° |
| 2026-04-16 11:01 | 53.69499 | 10.14337 | 1982 ft | 133 kts | 263° |
| 2026-04-16 11:02 | 53.69426 | 10.12811 | 1845 ft | 131 kts | 263° |
| 2026-04-16 11:02 | 53.69189 | 10.11359 | 1638 ft | 129 kts | 243° |
| 2026-04-16 11:02 | 53.68665 | 10.10149 | 1512 ft | 127 kts | 234° |
| 2026-04-16 11:02 | 53.68099 | 10.09006 | 1385 ft | 128 kts | 230° |
| 2026-04-16 11:03 | 53.67516 | 10.07886 | 1260 ft | 126 kts | 234° |
| 2026-04-16 11:03 | 53.66968 | 10.06751 | 1086 ft | 126 kts | 233° |
| 2026-04-16 11:03 | 53.65832 | 10.04464 | 730 ft | 130 kts | 230° |
| 2026-04-16 11:04 | 53.65260 | 10.03304 | 578 ft | 126 kts | 233° |
| 2026-04-16 11:04 | 53.64683 | 10.02152 | 410 ft | 127 kts | 232° |
| 2026-04-16 11:04 | 53.64114 | 10.00998 | 232 ft | 129 kts | 232° |
| 2026-04-16 11:04 | 53.63547 | 9.99854 | 64 ft | 122 kts | 232° |
| 2026-04-16 11:05 | 53.63081 | 9.98906 | 50 ft | 81 kts | 231° |
| 2026-04-16 11:05 | 53.62871 | 9.98545 | 48 ft | 23 kts | 210° |
| 2026-04-16 11:05 | 53.62728 | 9.98478 | 51 ft | 13 kts | 169° |
| 2026-04-16 11:05 | 53.62706 | 9.98584 | 51 ft | 11 kts | 53° |
| 2026-04-16 11:06 | 53.62751 | 9.98678 | 50 ft | 10 kts | 50° |
| 2026-04-16 11:06 | 53.62795 | 9.98767 | 50 ft | 10 kts | 50° |
| 2026-04-16 11:06 | 53.62841 | 9.98859 | 50 ft | 14 kts | 51° |
| 2026-04-16 11:06 | 53.62935 | 9.99052 | 50 ft | 28 kts | 50° |
| 2026-04-16 11:07 | 53.63038 | 9.99260 | 50 ft | 17 kts | 52° |
| 2026-04-16 11:07 | 53.63103 | 9.99413 | 50 ft | 16 kts | 56° |
| 2026-04-16 11:07 | 53.63166 | 9.99559 | 49 ft | 15 kts | 52° |
| 2026-04-16 11:07 | 53.63226 | 9.99688 | 50 ft | 13 kts | 69° |
| 2026-04-16 11:08 | 53.63186 | 9.99795 | 50 ft | 12 kts | 153° |
| 2026-04-16 11:08 | 53.63126 | 9.99898 | 50 ft | 13 kts | 84° |
| 2026-04-16 11:08 | 53.63172 | 10.00019 | 51 ft | 12 kts | 53° |
| 2026-04-16 11:08 | 53.63221 | 10.00123 | 50 ft | 11 kts | 51° |
| 2026-04-16 11:09 | 53.63248 | 10.00228 | 51 ft | 10 kts | 110° |
| 2026-04-16 11:09 | 53.63191 | 10.00249 | 51 ft | 10 kts | 176° |
| 2026-04-16 11:09 | 53.63104 | 10.00260 | 51 ft | 8 kts | 176° |
| 2026-04-16 11:09 | 53.63081 | 10.00315 | 51 ft | 6 kts | 96° |
| 2026-04-16 11:10 | 53.63076 | 10.00355 | 51 ft | 0 kts | 98° |
| 2026-04-16 11:10 | 53.63075 | 10.00376 | 51 ft | 0 kts | 98° |